createdAt,value
2022-12-08T00:00:03.312Z,1080.0970
2022-12-08T00:00:14.539Z,1076.6130
2022-12-08T00:00:25.614Z,1074.8790
2022-12-08T00:00:36.688Z,1076.6130
2022-12-08T00:00:47.792Z,1075.7450
2022-12-08T00:00:58.989Z,1083.6040
2022-12-08T00:01:10.059Z,1080.9720
2022-12-08T00:01:21.409Z,1074.8790
2022-12-08T00:01:32.600Z,1069.7120
2022-12-08T00:01:44.037Z,1077.4821
2022-12-08T00:01:55.523Z,1072.2889
2022-12-08T00:02:07.079Z,1081.8480
2022-12-08T00:02:18.537Z,1074.8790
2022-12-08T00:02:30.119Z,1074.8790
2022-12-08T00:02:41.535Z,1070.5690
2022-12-08T00:02:52.844Z,1078.3521
2022-12-08T00:03:04.301Z,1076.6130
2022-12-08T00:03:15.906Z,1074.0140
2022-12-08T00:03:27.359Z,1073.1510
2022-12-08T00:03:38.737Z,1068.8550
2022-12-08T00:03:49.876Z,1074.8790
2022-12-08T00:04:00.942Z,1076.6130
2022-12-08T00:04:12.013Z,1067.1460
2022-12-08T00:04:23.157Z,1075.7450
2022-12-08T00:04:34.353Z,1074.8790
2022-12-08T00:04:45.539Z,1078.3521
2022-12-08T00:04:56.754Z,1069.7120
2022-12-08T00:05:07.828Z,1074.8790
2022-12-08T00:05:18.946Z,1072.2889
2022-12-08T00:05:30.030Z,1080.9720
2022-12-08T00:05:41.234Z,1076.6130
2022-12-08T00:05:52.302Z,1069.7120
2022-12-08T00:06:03.367Z,1073.1510
2022-12-08T00:06:14.429Z,1076.6130
2022-12-08T00:06:25.499Z,1074.8790
2022-12-08T00:06:36.589Z,1074.8790
2022-12-08T00:06:47.790Z,1074.0140
2022-12-08T00:06:58.994Z,1079.2240
2022-12-08T00:07:10.210Z,1072.2889
2022-12-08T00:07:21.258Z,1073.1510
2022-12-08T00:07:32.335Z,1076.6130
2022-12-08T00:07:43.526Z,1076.6130
2022-12-08T00:07:54.754Z,1070.5690
2022-12-08T00:08:05.935Z,1073.1510
2022-12-08T00:08:17.135Z,1073.1510
2022-12-08T00:08:28.346Z,1073.1510
2022-12-08T00:08:39.455Z,1072.2889
2022-12-08T00:08:50.554Z,1069.7120
2022-12-08T00:09:01.629Z,1073.1510
2022-12-08T00:09:12.741Z,1078.3521
2022-12-08T00:09:23.915Z,1085.3660
2022-12-08T00:09:39.033Z,1083.6040
2022-12-08T00:09:50.882Z,1068.0000
2022-12-08T00:10:14.329Z,1074.8790
2022-12-08T00:10:47.232Z,1061.2080
2022-12-08T00:10:51.275Z,1052.8390
2022-12-08T00:10:52.958Z,1047.0590
2022-12-08T00:11:04.098Z,1052.8390
2022-12-08T00:11:15.312Z,1051.1810
2022-12-08T00:11:26.510Z,1060.3650
2022-12-08T00:11:37.586Z,1060.3650
2022-12-08T00:11:48.648Z,1063.7450
2022-12-08T00:11:59.804Z,1057.8450
2022-12-08T00:12:10.894Z,1061.2080
2022-12-08T00:12:21.959Z,1064.5930
2022-12-08T00:12:33.017Z,1071.4290
2022-12-08T00:12:44.085Z,1074.8790
2022-12-08T00:12:55.151Z,1068.0000
2022-12-08T00:13:06.350Z,1068.0000
2022-12-08T00:13:17.539Z,1069.7120
2022-12-08T00:13:28.751Z,1072.2889
2022-12-08T00:13:39.810Z,1070.5690
2022-12-08T00:13:50.864Z,1071.4290
2022-12-08T00:14:02.035Z,1073.1510
2022-12-08T00:14:13.232Z,1068.0000
2022-12-08T00:14:24.429Z,1071.4290
2022-12-08T00:14:35.631Z,1077.4821
2022-12-08T00:14:46.836Z,1074.0140
2022-12-08T00:14:58.031Z,1076.6130
2022-12-08T00:15:09.229Z,1074.8790
2022-12-08T00:15:20.577Z,1078.3521
2022-12-08T00:15:31.631Z,1080.9720
2022-12-08T00:15:42.854Z,1080.9720
2022-12-08T00:15:53.937Z,1080.0970
2022-12-08T00:16:05.110Z,1078.3521
2022-12-08T00:16:16.252Z,1076.6130
2022-12-08T00:16:27.423Z,1076.6130
2022-12-08T00:16:38.528Z,1080.0970
2022-12-08T00:16:49.807Z,1082.7250
2022-12-08T00:17:00.951Z,1081.8480
2022-12-08T00:17:12.114Z,1071.4290
2022-12-08T00:17:23.340Z,1081.8480
2022-12-08T00:17:34.592Z,1084.4840
2022-12-08T00:17:45.688Z,1074.0140
2022-12-08T00:17:56.740Z,1083.6040
2022-12-08T00:18:07.808Z,1083.6040
2022-12-08T00:18:18.898Z,1086.2490
2022-12-08T00:18:29.978Z,1088.0200
2022-12-08T00:18:41.058Z,1085.3660
2022-12-08T00:18:52.270Z,1088.0200
2022-12-08T00:19:03.469Z,1088.9070
2022-12-08T00:19:14.672Z,1086.2490
2022-12-08T00:19:25.869Z,1087.1340
2022-12-08T00:19:37.074Z,1084.4840
2022-12-08T00:19:48.259Z,1089.7960
2022-12-08T00:19:59.471Z,1095.1600
2022-12-08T00:20:10.544Z,1094.2620
2022-12-08T00:20:21.631Z,1098.7650
2022-12-08T00:20:32.752Z,1092.4709
2022-12-08T00:20:43.951Z,1093.3660
2022-12-08T00:20:55.149Z,1086.2490
2022-12-08T00:21:06.362Z,1093.3660
2022-12-08T00:21:17.549Z,1088.0200
2022-12-08T00:21:28.752Z,1088.9070
2022-12-08T00:21:39.818Z,1091.5780
2022-12-08T00:21:50.897Z,1090.6860
2022-12-08T00:22:02.029Z,1096.0590
2022-12-08T00:22:13.069Z,1096.0590
2022-12-08T00:22:24.166Z,1092.4709
2022-12-08T00:22:35.313Z,1100.5770
2022-12-08T00:22:46.378Z,1095.1600
2022-12-08T00:22:57.464Z,1093.3660
2022-12-08T00:23:08.491Z,1103.3060
2022-12-08T00:23:19.551Z,1105.1320
2022-12-08T00:23:30.669Z,1100.5770
2022-12-08T00:23:41.871Z,1103.3060
2022-12-08T00:23:52.930Z,1103.3060
2022-12-08T00:24:04.014Z,1098.7650
2022-12-08T00:24:15.151Z,1099.6710
2022-12-08T00:24:26.221Z,1102.3950
2022-12-08T00:24:37.289Z,1101.4850
2022-12-08T00:24:48.430Z,1105.1320
2022-12-08T00:24:59.510Z,1105.1320
2022-12-08T00:25:10.598Z,1099.6710
2022-12-08T00:25:21.758Z,1106.9650
2022-12-08T00:25:32.909Z,1106.9650
2022-12-08T00:25:44.098Z,1102.3950
2022-12-08T00:25:55.311Z,1111.5740
2022-12-08T00:26:06.376Z,1108.8040
2022-12-08T00:26:17.454Z,1106.9650
2022-12-08T00:26:28.592Z,1108.8040
2022-12-08T00:26:39.631Z,1108.8040
2022-12-08T00:26:50.752Z,1103.3060
2022-12-08T00:27:01.877Z,1112.5000
2022-12-08T00:27:12.928Z,1107.8840
2022-12-08T00:27:23.996Z,1112.5000
2022-12-08T00:27:35.149Z,1110.6490
2022-12-08T00:27:46.189Z,1108.8040
2022-12-08T00:27:57.237Z,1110.6490
2022-12-08T00:28:08.432Z,1112.5000
2022-12-08T00:28:19.629Z,1113.4280
2022-12-08T00:28:30.704Z,1109.7260
2022-12-08T00:28:41.775Z,1112.5000
2022-12-08T00:28:52.850Z,1115.2880
2022-12-08T00:29:03.925Z,1116.2209
2022-12-08T00:29:17.582Z,1110.6490
2022-12-08T00:29:29.149Z,1106.9650
2022-12-08T00:29:40.274Z,1109.7260
2022-12-08T00:29:51.471Z,1111.5740
2022-12-08T00:30:02.671Z,1118.0900
2022-12-08T00:30:13.858Z,1113.4280
2022-12-08T00:30:24.985Z,1121.8490
2022-12-08T00:30:36.057Z,1119.0280
2022-12-08T00:30:47.152Z,1118.0900
2022-12-08T00:30:58.338Z,1109.7260
2022-12-08T00:31:09.535Z,1119.0280
2022-12-08T00:31:20.796Z,1114.3571
2022-12-08T00:31:31.933Z,1116.2209
2022-12-08T00:31:43.163Z,1117.1550
2022-12-08T00:31:54.457Z,1112.5000
2022-12-08T00:32:05.730Z,1116.2209
2022-12-08T00:32:16.889Z,1121.8490
2022-12-08T00:32:27.937Z,1125.6320
2022-12-08T00:32:39.154Z,1122.7920
2022-12-08T00:32:50.218Z,1121.8490
2022-12-08T00:33:01.295Z,1123.7371
2022-12-08T00:33:12.421Z,1123.7371
2022-12-08T00:33:23.638Z,1121.8490
2022-12-08T00:33:34.698Z,1130.3979
2022-12-08T00:33:45.775Z,1115.2880
2022-12-08T00:33:56.909Z,1121.8490
2022-12-08T00:34:08.111Z,1127.5341
2022-12-08T00:34:19.299Z,1122.7920
2022-12-08T00:34:30.509Z,1123.7371
2022-12-08T00:34:41.708Z,1120.9070
2022-12-08T00:34:52.913Z,1123.7371
2022-12-08T00:35:04.552Z,1127.5341
2022-12-08T00:35:15.988Z,1124.6840
2022-12-08T00:35:27.118Z,1123.7371
2022-12-08T00:35:42.869Z,1123.7371
2022-12-08T00:35:55.294Z,1116.2209
2022-12-08T00:36:06.511Z,1116.2209
2022-12-08T00:36:17.714Z,1118.0900
2022-12-08T00:36:28.781Z,1125.6320
2022-12-08T00:36:39.847Z,1121.8490
2022-12-08T00:36:50.990Z,1127.5341
2022-12-08T00:37:02.192Z,1128.4871
2022-12-08T00:37:13.392Z,1123.7371
2022-12-08T00:37:24.590Z,1126.5820
2022-12-08T00:37:35.791Z,1130.3979
2022-12-08T00:37:46.990Z,1125.6320
2022-12-08T00:38:01.012Z,1129.4420
2022-12-08T00:38:12.311Z,1125.6320
2022-12-08T00:38:23.471Z,1128.4871
2022-12-08T00:38:34.660Z,1129.4420
2022-12-08T00:38:45.872Z,1131.3560
2022-12-08T00:38:56.944Z,1124.6840
2022-12-08T00:39:08.008Z,1127.5341
2022-12-08T00:39:19.140Z,1135.2040
2022-12-08T00:39:30.353Z,1133.2770
2022-12-08T00:39:41.550Z,1136.1700
2022-12-08T00:39:52.769Z,1127.5341
2022-12-08T00:40:04.391Z,1128.4871
2022-12-08T00:40:15.824Z,1135.2040
2022-12-08T00:40:26.992Z,1131.3560
2022-12-08T00:40:38.219Z,1139.0790
2022-12-08T00:40:49.368Z,1135.2040
2022-12-08T00:41:00.591Z,1129.4420
2022-12-08T00:41:11.777Z,1139.0790
2022-12-08T00:41:22.991Z,1134.2400
2022-12-08T00:41:34.179Z,1139.0790
2022-12-08T00:41:45.395Z,1137.1379
2022-12-08T00:41:56.478Z,1129.4420
2022-12-08T00:42:07.579Z,1141.0260
2022-12-08T00:42:18.659Z,1137.1379
2022-12-08T00:42:29.872Z,1141.0260
2022-12-08T00:42:41.069Z,1137.1379
2022-12-08T00:42:52.272Z,1135.2040
2022-12-08T00:43:03.348Z,1134.2400
2022-12-08T00:43:14.415Z,1145.9230
2022-12-08T00:43:25.540Z,1141.0260
2022-12-08T00:43:36.755Z,1142.9790
2022-12-08T00:43:47.938Z,1144.9399
2022-12-08T00:43:59.010Z,1136.1700
2022-12-08T00:44:10.090Z,1142.9790
2022-12-08T00:44:21.231Z,1143.9590
2022-12-08T00:44:32.431Z,1142.9790
2022-12-08T00:44:43.513Z,1137.1379
2022-12-08T00:44:54.573Z,1141.0260
2022-12-08T00:45:05.617Z,1141.0260
2022-12-08T00:45:16.698Z,1146.9070
2022-12-08T00:45:27.908Z,1140.0510
2022-12-08T00:45:39.074Z,1146.9070
2022-12-08T00:45:50.181Z,1145.9230
2022-12-08T00:46:01.541Z,1142.0020
2022-12-08T00:46:12.738Z,1141.0260
2022-12-08T00:46:23.901Z,1144.9399
2022-12-08T00:46:34.993Z,1147.8929
2022-12-08T00:46:46.044Z,1141.0260
2022-12-08T00:46:57.091Z,1142.0020
2022-12-08T00:47:08.138Z,1146.9070
2022-12-08T00:47:24.533Z,1146.9070
2022-12-08T00:47:36.141Z,1136.1700
2022-12-08T00:47:47.337Z,1142.9790
2022-12-08T00:47:58.550Z,1142.9790
2022-12-08T00:48:09.591Z,1141.0260
2022-12-08T00:48:20.649Z,1143.9590
2022-12-08T00:48:31.833Z,1145.9230
2022-12-08T00:48:42.898Z,1142.9790
2022-12-08T00:48:53.979Z,1147.8929
2022-12-08T00:49:05.099Z,1148.8810
2022-12-08T00:49:16.167Z,1146.9070
2022-12-08T00:49:27.218Z,1147.8929
2022-12-08T00:49:38.397Z,1150.8621
2022-12-08T00:49:49.456Z,1148.8810
2022-12-08T00:50:00.663Z,1142.9790
2022-12-08T00:50:11.771Z,1146.9070
2022-12-08T00:50:22.871Z,1142.0020
2022-12-08T00:50:33.968Z,1146.9070
2022-12-08T00:50:45.171Z,1142.9790
2022-12-08T00:50:56.257Z,1144.9399
2022-12-08T00:51:07.408Z,1152.8500
2022-12-08T00:51:18.578Z,1148.8810
2022-12-08T00:51:29.741Z,1146.9070
2022-12-08T00:51:40.854Z,1153.8459
2022-12-08T00:51:51.918Z,1144.9399
2022-12-08T00:52:03.017Z,1150.8621
2022-12-08T00:52:14.224Z,1149.8710
2022-12-08T00:52:25.418Z,1152.8500
2022-12-08T00:52:36.628Z,1147.8929
2022-12-08T00:52:47.824Z,1153.8459
2022-12-08T00:52:59.029Z,1153.8459
2022-12-08T00:53:10.098Z,1156.8459
2022-12-08T00:53:21.168Z,1152.8500
2022-12-08T00:53:32.299Z,1150.8621
2022-12-08T00:53:43.347Z,1150.8621
2022-12-08T00:53:54.419Z,1150.8621
2022-12-08T00:54:05.579Z,1148.8810
2022-12-08T00:54:16.648Z,1152.8500
2022-12-08T00:54:27.704Z,1154.8440
2022-12-08T00:54:38.858Z,1156.8459
2022-12-08T00:54:49.924Z,1153.8459
2022-12-08T00:55:00.999Z,1158.8540
2022-12-08T00:55:12.148Z,1154.8440
2022-12-08T00:55:23.345Z,1160.8700
2022-12-08T00:55:34.416Z,1159.8610
2022-12-08T00:55:45.527Z,1153.8459
2022-12-08T00:55:56.580Z,1153.8459
2022-12-08T00:56:07.819Z,1150.8621
2022-12-08T00:56:19.026Z,1156.8459
2022-12-08T00:56:30.220Z,1152.8500
2022-12-08T00:56:41.426Z,1155.8440
2022-12-08T00:56:52.628Z,1158.8540
2022-12-08T00:57:03.828Z,1153.8459
2022-12-08T00:57:15.029Z,1158.8540
2022-12-08T00:57:26.227Z,1148.8810
2022-12-08T00:57:37.298Z,1154.8440
2022-12-08T00:57:48.377Z,1152.8500
2022-12-08T00:57:59.425Z,1154.8440
2022-12-08T00:58:10.488Z,1156.8459
2022-12-08T00:58:21.528Z,1157.8490
2022-12-08T00:58:32.789Z,1150.8621
2022-12-08T00:58:43.985Z,1152.8500
2022-12-08T00:58:55.187Z,1160.8700
2022-12-08T00:59:06.265Z,1157.8490
2022-12-08T00:59:17.329Z,1159.8610
2022-12-08T00:59:28.458Z,1152.8500
2022-12-08T00:59:39.668Z,1153.8459
2022-12-08T00:59:50.862Z,1162.8920
2022-12-08T01:00:02.413Z,1156.8459
2022-12-08T01:00:13.968Z,1152.8500
2022-12-08T01:00:25.115Z,1161.8800
2022-12-08T01:00:36.378Z,1160.8700
2022-12-08T01:00:47.612Z,1160.8700
2022-12-08T01:00:58.743Z,1158.8540
2022-12-08T01:01:09.973Z,1155.8440
2022-12-08T01:01:21.168Z,1151.8550
2022-12-08T01:01:32.362Z,1158.8540
2022-12-08T01:01:43.493Z,1153.8459
2022-12-08T01:01:54.708Z,1155.8440
2022-12-08T01:02:05.904Z,1156.8459
2022-12-08T01:02:17.106Z,1155.8440
2022-12-08T01:02:28.304Z,1157.8490
2022-12-08T01:02:39.397Z,1160.8700
2022-12-08T01:02:50.542Z,1161.8800
2022-12-08T01:03:01.673Z,1155.8440
2022-12-08T01:03:12.885Z,1157.8490
2022-12-08T01:03:24.074Z,1156.8459
2022-12-08T01:03:35.305Z,1158.8540
2022-12-08T01:03:46.479Z,1159.8610
2022-12-08T01:03:57.574Z,1159.8610
2022-12-08T01:04:08.635Z,1156.8459
2022-12-08T01:04:19.716Z,1161.8800
2022-12-08T01:04:30.864Z,1158.8540
2022-12-08T01:04:42.088Z,1161.8800
2022-12-08T01:04:53.100Z,1154.8440
2022-12-08T01:05:04.184Z,1154.8440
2022-12-08T01:05:15.235Z,1154.8440
2022-12-08T01:05:26.306Z,1155.8440
2022-12-08T01:05:37.424Z,1166.9580
2022-12-08T01:05:48.684Z,1164.9210
2022-12-08T01:05:59.818Z,1159.8610
2022-12-08T01:06:11.063Z,1161.8800
2022-12-08T01:06:22.238Z,1162.8920
2022-12-08T01:06:33.319Z,1160.8700
2022-12-08T01:06:44.397Z,1160.8700
2022-12-08T01:06:55.511Z,1158.8540
2022-12-08T01:07:06.617Z,1155.8440
2022-12-08T01:07:17.684Z,1160.8700
2022-12-08T01:07:28.778Z,1163.9060
2022-12-08T01:07:40.067Z,1155.8440
2022-12-08T01:07:51.272Z,1162.8920
2022-12-08T01:08:02.517Z,1164.9210
2022-12-08T01:08:13.681Z,1156.8459
2022-12-08T01:08:24.877Z,1156.8459
2022-12-08T01:08:35.989Z,1162.8920
2022-12-08T01:08:47.188Z,1159.8610
2022-12-08T01:08:58.381Z,1154.8440
2022-12-08T01:09:09.459Z,1160.8700
2022-12-08T01:09:20.558Z,1159.8610
2022-12-08T01:09:31.718Z,1160.8700
2022-12-08T01:09:42.891Z,1165.9390
2022-12-08T01:09:53.951Z,1159.8610
2022-12-08T01:10:05.339Z,1158.8540
2022-12-08T01:10:16.501Z,1162.8920
2022-12-08T01:10:27.657Z,1165.9390
2022-12-08T01:10:38.874Z,1154.8440
2022-12-08T01:10:50.094Z,1165.9390
2022-12-08T01:11:01.268Z,1162.8920
2022-12-08T01:11:12.469Z,1161.8800
2022-12-08T01:11:23.670Z,1164.9210
2022-12-08T01:11:34.739Z,1159.8610
2022-12-08T01:11:45.825Z,1160.8700
2022-12-08T01:11:56.950Z,1165.9390
2022-12-08T01:12:08.148Z,1163.9060
2022-12-08T01:12:19.368Z,1160.8700
2022-12-08T01:12:30.564Z,1161.8800
2022-12-08T01:12:41.753Z,1162.8920
2022-12-08T01:12:52.958Z,1159.8610
2022-12-08T01:13:04.137Z,1160.8700
2022-12-08T01:13:15.349Z,1158.8540
2022-12-08T01:13:26.537Z,1158.8540
2022-12-08T01:13:37.619Z,1160.8700
2022-12-08T01:13:48.687Z,1163.9060
2022-12-08T01:13:59.829Z,1159.8610
2022-12-08T01:14:11.023Z,1162.8920
2022-12-08T01:14:22.229Z,1160.8700
2022-12-08T01:14:33.417Z,1162.8920
2022-12-08T01:14:44.631Z,1161.8800
2022-12-08T01:15:00.631Z,1160.8700
2022-12-08T01:15:12.796Z,1150.8621
2022-12-08T01:15:23.978Z,1154.8440
2022-12-08T01:15:35.025Z,1155.8440
2022-12-08T01:15:46.089Z,1155.8440
2022-12-08T01:15:57.317Z,1156.8459
2022-12-08T01:16:08.602Z,1154.8440
2022-12-08T01:16:19.752Z,1156.8459
2022-12-08T01:16:30.940Z,1158.8540
2022-12-08T01:16:42.251Z,1164.9210
2022-12-08T01:16:53.786Z,1159.8610
2022-12-08T01:17:04.965Z,1161.8800
2022-12-08T01:17:16.036Z,1163.9060
2022-12-08T01:17:27.189Z,1156.8459
2022-12-08T01:17:38.259Z,1156.8459
2022-12-08T01:17:49.332Z,1160.8700
2022-12-08T01:18:00.467Z,1161.8800
2022-12-08T01:18:11.665Z,1165.9390
2022-12-08T01:18:22.871Z,1158.8540
2022-12-08T01:18:34.067Z,1156.8459
2022-12-08T01:18:45.128Z,1164.9210
2022-12-08T01:18:56.194Z,1159.8610
2022-12-08T01:19:07.338Z,1158.8540
2022-12-08T01:19:18.557Z,1159.8610
2022-12-08T01:19:29.744Z,1156.8459
2022-12-08T01:19:40.950Z,1160.8700
2022-12-08T01:19:52.017Z,1160.8700
2022-12-08T01:20:03.584Z,1160.8700
2022-12-08T01:20:14.898Z,1152.8500
2022-12-08T01:20:26.081Z,1164.9210
2022-12-08T01:20:37.277Z,1160.8700
2022-12-08T01:20:48.319Z,1160.8700
2022-12-08T01:20:59.518Z,1158.8540
2022-12-08T01:21:10.595Z,1161.8800
2022-12-08T01:21:21.745Z,1162.8920
2022-12-08T01:21:32.938Z,1163.9060
2022-12-08T01:21:44.150Z,1163.9060
2022-12-08T01:21:55.216Z,1160.8700
2022-12-08T01:22:06.268Z,1162.8920
2022-12-08T01:22:17.429Z,1160.8700
2022-12-08T01:22:28.623Z,1162.8920
2022-12-08T01:22:39.667Z,1159.8610
2022-12-08T01:22:50.741Z,1161.8800
2022-12-08T01:23:01.817Z,1158.8540
2022-12-08T01:23:12.888Z,1162.8920
2022-12-08T01:23:23.987Z,1164.9210
2022-12-08T01:23:35.185Z,1164.9210
2022-12-08T01:23:46.388Z,1162.8920
2022-12-08T01:23:57.578Z,1160.8700
2022-12-08T01:24:08.655Z,1166.9580
2022-12-08T01:24:19.724Z,1157.8490
2022-12-08T01:24:30.861Z,1165.9390
2022-12-08T01:24:42.066Z,1166.9580
2022-12-08T01:24:53.268Z,1161.8800
2022-12-08T01:25:04.467Z,1158.8540
2022-12-08T01:25:15.668Z,1158.8540
2022-12-08T01:25:26.866Z,1162.8920
2022-12-08T01:25:38.072Z,1164.9210
2022-12-08T01:25:49.259Z,1164.9210
2022-12-08T01:26:00.500Z,1164.9210
2022-12-08T01:26:11.567Z,1165.9390
2022-12-08T01:26:22.636Z,1162.8920
2022-12-08T01:26:33.689Z,1170.0260
2022-12-08T01:26:44.771Z,1157.8490
2022-12-08T01:26:55.824Z,1166.9580
2022-12-08T01:27:07.028Z,1165.9390
2022-12-08T01:27:18.099Z,1160.8700
2022-12-08T01:27:29.179Z,1161.8800
2022-12-08T01:27:40.338Z,1162.8920
2022-12-08T01:27:51.519Z,1164.9210
2022-12-08T01:28:02.705Z,1166.9580
2022-12-08T01:28:13.908Z,1162.8920
2022-12-08T01:28:24.986Z,1159.8610
2022-12-08T01:28:36.058Z,1166.9580
2022-12-08T01:28:47.187Z,1162.8920
2022-12-08T01:28:58.388Z,1162.8920
2022-12-08T01:29:09.584Z,1162.8920
2022-12-08T01:29:20.697Z,1161.8800
2022-12-08T01:29:31.777Z,1159.8610
2022-12-08T01:29:42.867Z,1163.9060
2022-12-08T01:29:54.064Z,1169.0020
2022-12-08T01:30:05.232Z,1169.0020
2022-12-08T01:30:16.508Z,1162.8920
2022-12-08T01:30:27.638Z,1162.8920
2022-12-08T01:30:38.878Z,1162.8920
2022-12-08T01:30:50.160Z,1165.9390
2022-12-08T01:31:01.333Z,1167.9790
2022-12-08T01:31:12.548Z,1165.9390
2022-12-08T01:31:23.728Z,1160.8700
2022-12-08T01:31:34.907Z,1166.9580
2022-12-08T01:31:46.067Z,1164.9210
2022-12-08T01:31:57.293Z,1159.8610
2022-12-08T01:32:08.465Z,1162.8920
2022-12-08T01:32:19.671Z,1159.8610
2022-12-08T01:32:30.728Z,1161.8800
2022-12-08T01:32:41.804Z,1158.8540
2022-12-08T01:32:52.944Z,1162.8920
2022-12-08T01:33:04.158Z,1169.0020
2022-12-08T01:33:15.345Z,1160.8700
2022-12-08T01:33:26.506Z,1166.9580
2022-12-08T01:33:37.568Z,1166.9580
2022-12-08T01:33:48.629Z,1167.9790
2022-12-08T01:33:59.697Z,1160.8700
2022-12-08T01:34:10.774Z,1157.8490
2022-12-08T01:34:21.897Z,1166.9580
2022-12-08T01:34:33.107Z,1160.8700
2022-12-08T01:34:44.177Z,1164.9210
2022-12-08T01:34:55.238Z,1161.8800
2022-12-08T01:35:06.384Z,1163.9060
2022-12-08T01:35:17.590Z,1164.9210
2022-12-08T01:35:28.783Z,1157.8490
2022-12-08T01:35:39.989Z,1158.8540
2022-12-08T01:35:51.189Z,1167.9790
2022-12-08T01:36:02.472Z,1167.9790
2022-12-08T01:36:13.599Z,1162.8920
2022-12-08T01:36:24.788Z,1159.8610
2022-12-08T01:36:35.987Z,1166.9580
2022-12-08T01:36:47.190Z,1156.8459
2022-12-08T01:36:58.378Z,1166.9580
2022-12-08T01:37:09.594Z,1166.9580
2022-12-08T01:37:20.791Z,1164.9210
2022-12-08T01:37:31.988Z,1169.0020
2022-12-08T01:37:43.185Z,1160.8700
2022-12-08T01:37:54.226Z,1162.8920
2022-12-08T01:38:05.297Z,1170.0260
2022-12-08T01:38:16.470Z,1163.9060
2022-12-08T01:38:27.545Z,1170.0260
2022-12-08T01:38:38.628Z,1163.9060
2022-12-08T01:38:49.744Z,1166.9580
2022-12-08T01:39:00.950Z,1163.9060
2022-12-08T01:39:12.145Z,1167.9790
2022-12-08T01:39:23.347Z,1159.8610
2022-12-08T01:39:34.415Z,1170.0260
2022-12-08T01:39:45.484Z,1163.9060
2022-12-08T01:39:56.624Z,1162.8920
2022-12-08T01:40:07.919Z,1169.0020
2022-12-08T01:40:18.968Z,1166.9580
2022-12-08T01:40:30.034Z,1164.9210
2022-12-08T01:40:41.090Z,1169.0020
2022-12-08T01:40:52.310Z,1169.0020
2022-12-08T01:41:03.548Z,1164.9210
2022-12-08T01:41:14.710Z,1160.8700
2022-12-08T01:41:25.775Z,1160.8700
2022-12-08T01:41:36.839Z,1162.8920
2022-12-08T01:41:47.897Z,1171.0530
2022-12-08T01:41:58.959Z,1166.9580
2022-12-08T01:42:10.064Z,1161.8800
2022-12-08T01:42:21.268Z,1169.0020
2022-12-08T01:42:32.468Z,1167.9790
2022-12-08T01:42:43.667Z,1162.8920
2022-12-08T01:42:54.778Z,1169.0020
2022-12-08T01:43:05.914Z,1159.8610
2022-12-08T01:43:16.998Z,1170.0260
2022-12-08T01:43:28.149Z,1161.8800
2022-12-08T01:43:39.346Z,1161.8800
2022-12-08T01:43:50.548Z,1161.8800
2022-12-08T01:44:01.794Z,1170.0260
2022-12-08T01:44:12.948Z,1175.1760
2022-12-08T01:44:24.145Z,1169.0020
2022-12-08T01:44:35.348Z,1167.9790
2022-12-08T01:44:46.553Z,1166.9580
2022-12-08T01:44:57.617Z,1162.8920
2022-12-08T01:45:08.694Z,1162.8920
2022-12-08T01:45:19.827Z,1164.9210
2022-12-08T01:45:31.043Z,1165.9390
2022-12-08T01:45:43.174Z,1164.9210
2022-12-08T01:45:54.457Z,1166.9580
2022-12-08T01:46:05.756Z,1169.0020
2022-12-08T01:46:16.895Z,1162.8920
2022-12-08T01:46:28.127Z,1166.9580
2022-12-08T01:46:39.293Z,1163.9060
2022-12-08T01:46:50.374Z,1158.8540
2022-12-08T01:47:01.602Z,1160.8700
2022-12-08T01:47:12.787Z,1170.0260
2022-12-08T01:47:23.984Z,1162.8920
2022-12-08T01:47:35.265Z,1160.8700
2022-12-08T01:47:46.535Z,1169.0020
2022-12-08T01:47:57.693Z,1171.0530
2022-12-08T01:48:08.864Z,1169.0020
2022-12-08T01:48:20.050Z,1166.9580
2022-12-08T01:48:31.190Z,1171.0530
2022-12-08T01:48:42.388Z,1163.9060
2022-12-08T01:48:53.462Z,1163.9060
2022-12-08T01:49:04.527Z,1161.8800
2022-12-08T01:49:15.666Z,1169.0020
2022-12-08T01:49:26.708Z,1173.1110
2022-12-08T01:49:37.764Z,1172.0811
2022-12-08T01:49:48.974Z,1169.0020
2022-12-08T01:50:00.134Z,1169.0020
2022-12-08T01:50:11.347Z,1175.1760
2022-12-08T01:50:22.544Z,1167.9790
2022-12-08T01:50:33.668Z,1166.9580
2022-12-08T01:50:44.718Z,1164.9210
2022-12-08T01:50:55.825Z,1161.8800
2022-12-08T01:51:06.915Z,1166.9580
2022-12-08T01:51:17.975Z,1160.8700
2022-12-08T01:51:29.108Z,1174.1420
2022-12-08T01:51:40.308Z,1173.1110
2022-12-08T01:51:51.514Z,1162.8920
2022-12-08T01:52:02.577Z,1166.9580
2022-12-08T01:52:13.630Z,1165.9390
2022-12-08T01:52:24.787Z,1164.9210
2022-12-08T01:52:35.984Z,1171.0530
2022-12-08T01:52:47.179Z,1166.9580
2022-12-08T01:52:58.394Z,1171.0530
2022-12-08T01:53:09.578Z,1173.1110
2022-12-08T01:53:20.787Z,1162.8920
2022-12-08T01:53:31.985Z,1164.9210
2022-12-08T01:53:43.025Z,1167.9790
2022-12-08T01:53:54.067Z,1173.1110
2022-12-08T01:54:05.268Z,1166.9580
2022-12-08T01:54:16.341Z,1173.1110
2022-12-08T01:54:27.409Z,1167.9790
2022-12-08T01:54:38.509Z,1164.9210
2022-12-08T01:54:49.748Z,1164.9210
2022-12-08T01:55:00.939Z,1163.9060
2022-12-08T01:55:12.149Z,1166.9580
2022-12-08T01:55:23.232Z,1167.9790
2022-12-08T01:55:34.315Z,1171.0530
2022-12-08T01:55:45.425Z,1172.0811
2022-12-08T01:55:56.513Z,1166.9580
2022-12-08T01:56:07.625Z,1164.9210
2022-12-08T01:56:18.792Z,1165.9390
2022-12-08T01:56:29.974Z,1172.0811
2022-12-08T01:56:41.192Z,1171.0530
2022-12-08T01:56:52.232Z,1165.9390
2022-12-08T01:57:03.280Z,1169.0020
2022-12-08T01:57:14.474Z,1169.0020
2022-12-08T01:57:25.673Z,1180.3710
2022-12-08T01:57:36.853Z,1163.9060
2022-12-08T01:57:48.072Z,1162.8920
2022-12-08T01:57:59.135Z,1166.9580
2022-12-08T01:58:10.361Z,1162.8920
2022-12-08T01:58:21.556Z,1161.8800
2022-12-08T01:58:32.757Z,1169.0020
2022-12-08T01:58:43.954Z,1171.0530
2022-12-08T01:58:55.155Z,1162.8920
2022-12-08T01:59:06.359Z,1162.8920
2022-12-08T01:59:17.430Z,1169.0020
2022-12-08T01:59:28.503Z,1173.1110
2022-12-08T01:59:39.644Z,1172.0811
2022-12-08T01:59:50.845Z,1167.9790
2022-12-08T02:00:02.723Z,1161.8800
2022-12-08T02:00:14.239Z,1164.9210
2022-12-08T02:00:25.280Z,1164.9210
2022-12-08T02:00:36.364Z,1169.0020
2022-12-08T02:00:47.474Z,1170.0260
2022-12-08T02:00:58.586Z,1169.0020
2022-12-08T02:01:09.779Z,1169.0020
2022-12-08T02:01:21.152Z,1162.8920
2022-12-08T02:01:32.343Z,1169.0020
2022-12-08T02:01:43.528Z,1169.0020
2022-12-08T02:01:54.823Z,1166.9580
2022-12-08T02:02:06.025Z,1158.8540
2022-12-08T02:02:17.174Z,1163.9060
2022-12-08T02:02:28.330Z,1171.0530
2022-12-08T02:02:39.540Z,1170.0260
2022-12-08T02:02:50.614Z,1161.8800
2022-12-08T02:03:01.732Z,1160.8700
2022-12-08T02:03:12.840Z,1171.0530
2022-12-08T02:03:23.946Z,1166.9580
2022-12-08T02:03:35.006Z,1158.8540
2022-12-08T02:03:46.074Z,1169.0020
2022-12-08T02:03:57.237Z,1171.0530
2022-12-08T02:04:08.418Z,1167.9790
2022-12-08T02:04:19.626Z,1160.8700
2022-12-08T02:04:30.830Z,1169.0020
2022-12-08T02:04:42.027Z,1173.1110
2022-12-08T02:04:53.233Z,1167.9790
2022-12-08T02:05:04.305Z,1162.8920
2022-12-08T02:05:15.357Z,1166.9580
2022-12-08T02:05:26.499Z,1169.0020
2022-12-08T02:05:37.709Z,1162.8920
2022-12-08T02:05:48.905Z,1170.0260
2022-12-08T02:06:00.098Z,1164.9210
2022-12-08T02:06:11.358Z,1169.0020
2022-12-08T02:06:22.409Z,1164.9210
2022-12-08T02:06:33.489Z,1175.1760
2022-12-08T02:06:44.583Z,1166.9580
2022-12-08T02:06:55.791Z,1160.8700
2022-12-08T02:07:08.289Z,1165.9390
2022-12-08T02:07:19.522Z,1164.9210
2022-12-08T02:07:30.681Z,1160.8700
2022-12-08T02:07:41.880Z,1159.8610
2022-12-08T02:07:53.094Z,1160.8700
2022-12-08T02:08:04.271Z,1160.8700